Time;durP1;ratioP1;P1;durP2;ratioP2;P2;SDS_P1;SDS_P2;PMS_P1;PMS_P2;Temp;Humidity;BMP_temperature;BMP_pressure;BME280_temperature;BME280_humidity;BME280_pressure;Samples;Min_cycle;Max_cycle;Signal;HPM_P1;HPM_P2
2024/04/03 00:00:42;;;;;;;3.97;3.50;;;10.50;99.90;;;;;;5014874;28;20613;-74
2024/04/03 00:03:08;;;;;;;4.30;3.90;;;10.50;99.90;;;;;;5014553;28;20400;-74
2024/04/03 00:05:33;;;;;;;5.67;4.13;;;10.50;99.90;;;;;;5014267;28;20188;-74
2024/04/03 00:07:59;;;;;;;6.27;4.40;;;10.50;99.90;;;;;;5014662;28;20230;-75
2024/04/03 00:10:25;;;;;;;4.77;4.00;;;10.50;99.90;;;;;;5014469;28;20531;-74
2024/04/03 00:12:50;;;;;;;9.87;4.30;;;10.50;99.90;;;;;;5014234;28;20608;-74
2024/04/03 00:15:16;;;;;;;6.77;4.00;;;10.50;99.90;;;;;;5014582;28;20172;-75
2024/04/03 00:17:42;;;;;;;7.77;4.17;;;10.50;99.90;;;;;;5014049;28;20188;-75
2024/04/03 00:20:08;;;;;;;5.07;4.10;;;10.50;99.90;;;;;;5014196;28;20176;-74
2024/04/03 00:22:33;;;;;;;4.50;3.80;;;10.50;99.90;;;;;;5014370;28;20267;-74
2024/04/03 00:24:59;;;;;;;4.60;4.20;;;10.60;99.90;;;;;;5014122;28;20250;-75
2024/04/03 00:27:24;;;;;;;6.43;4.37;;;10.60;99.90;;;;;;5013974;28;20180;-75
2024/04/03 00:29:50;;;;;;;8.27;4.20;;;10.60;99.90;;;;;;5012843;28;20184;-75
2024/04/03 00:32:16;;;;;;;6.60;3.90;;;10.60;99.90;;;;;;5014409;28;20200;-75
2024/04/03 00:34:41;;;;;;;5.43;4.03;;;10.70;99.90;;;;;;5031166;28;20768;-75
2024/04/03 00:37:07;;;;;;;4.50;4.07;;;10.70;99.90;;;;;;5033480;28;20274;-75
2024/04/03 00:39:34;;;;;;;5.20;4.10;;;10.70;99.90;;;;;;5033698;28;20207;-75
2024/04/03 00:42:00;;;;;;;6.03;4.33;;;10.70;99.90;;;;;;5033739;28;20182;-74
2024/04/03 00:44:26;;;;;;;5.03;4.10;;;10.70;99.90;;;;;;5033332;28;20719;-75
2024/04/03 00:46:52;;;;;;;6.67;4.47;;;10.70;99.90;;;;;;5033708;28;20175;-74
2024/04/03 00:49:20;;;;;;;11.10;5.03;;;10.70;99.90;;;;;;5017395;28;20522;-74
2024/04/03 00:51:49;;;;;;;6.03;4.17;;;10.70;99.90;;;;;;5013570;28;20195;-75
2024/04/03 00:54:16;;;;;;;12.63;4.73;;;10.70;99.90;;;;;;5013897;28;20215;-75
2024/04/03 00:56:43;;;;;;;6.33;4.53;;;10.70;99.90;;;;;;5013776;28;20179;-75
2024/04/03 00:59:09;;;;;;;10.63;4.40;;;10.70;99.90;;;;;;5013664;28;20263;-76
2024/04/03 01:01:35;;;;;;;6.30;4.30;;;10.70;99.90;;;;;;5013670;28;20210;-76
2024/04/03 01:04:00;;;;;;;9.67;4.90;;;10.60;99.90;;;;;;5028892;28;20204;-75
2024/04/03 01:06:26;;;;;;;5.37;4.33;;;10.60;99.90;;;;;;5033288;28;20686;-75
2024/04/03 01:08:52;;;;;;;7.93;4.30;;;10.60;99.90;;;;;;5033446;28;20182;-75
2024/04/03 01:11:18;;;;;;;7.97;4.83;;;10.60;99.90;;;;;;5033489;28;20179;-76
2024/04/03 01:13:44;;;;;;;5.57;4.30;;;10.60;99.90;;;;;;5033416;28;20303;-75
2024/04/03 01:16:10;;;;;;;6.17;4.43;;;10.60;99.90;;;;;;5033456;28;20237;-75
2024/04/03 01:18:36;;;;;;;7.77;4.47;;;10.60;99.90;;;;;;5018755;28;20180;-76
2024/04/03 01:21:02;;;;;;;7.50;4.57;;;10.60;99.90;;;;;;5013604;28;20171;-75
2024/04/03 01:23:28;;;;;;;11.63;4.20;;;10.50;99.90;;;;;;5013712;28;20286;-75
2024/04/03 01:25:53;;;;;;;6.30;5.13;;;10.50;99.90;;;;;;5014267;28;20180;-75
2024/04/03 01:28:22;;;;;;;9.47;4.87;;;10.50;99.90;;;;;;5012954;28;20234;-75
2024/04/03 01:30:48;;;;;;;10.60;5.53;;;10.50;99.90;;;;;;5014100;28;20204;-75
2024/04/03 01:33:14;;;;;;;10.60;4.70;;;10.60;99.90;;;;;;5014339;28;20291;-75
2024/04/03 01:35:39;;;;;;;5.20;4.70;;;10.50;99.90;;;;;;5013368;28;20215;-75
2024/04/03 01:38:05;;;;;;;10.87;5.10;;;10.50;99.90;;;;;;5014291;28;20192;-76
2024/04/03 01:40:31;;;;;;;7.23;5.27;;;10.60;99.90;;;;;;5013315;28;20172;-75
2024/04/03 01:42:56;;;;;;;10.60;5.60;;;10.60;99.90;;;;;;5013017;28;20180;-75
2024/04/03 01:45:22;;;;;;;8.93;4.87;;;10.50;99.90;;;;;;5012726;28;20661;-75
2024/04/03 01:47:48;;;;;;;5.47;4.93;;;10.50;99.90;;;;;;5012924;28;20183;-75
2024/04/03 01:50:19;;;;;;;10.97;5.10;;;10.50;99.90;;;;;;5030877;28;20266;-75
2024/04/03 01:52:45;;;;;;;8.07;4.97;;;10.50;99.90;;;;;;5032729;28;20229;-74
2024/04/03 01:55:11;;;;;;;5.20;4.80;;;10.50;99.90;;;;;;5032631;28;20635;-76
2024/04/03 01:57:36;;;;;;;7.90;4.80;;;10.40;99.90;;;;;;5031576;28;20175;-75
2024/04/03 02:00:03;;;;;;;5.27;4.57;;;10.40;99.90;;;;;;5032395;28;20179;-75
2024/04/03 02:02:28;;;;;;;11.70;5.23;;;10.40;99.90;;;;;;5032706;28;20174;-75
2024/04/03 02:04:54;;;;;;;6.60;4.50;;;10.40;99.90;;;;;;5030832;28;20199;-76
2024/04/03 02:07:19;;;;;;;5.10;4.60;;;10.40;99.90;;;;;;5033169;28;20179;-75
2024/04/03 02:09:45;;;;;;;13.73;5.33;;;10.40;99.90;;;;;;5033474;28;20262;-75
2024/04/03 02:12:10;;;;;;;5.53;4.30;;;10.30;99.90;;;;;;5033321;28;20195;-75
2024/04/03 02:14:36;;;;;;;6.50;4.57;;;10.30;99.90;;;;;;5033151;28;20218;-74
2024/04/03 02:17:02;;;;;;;10.80;4.60;;;10.40;99.90;;;;;;5028131;28;20267;-75
2024/04/03 02:19:27;;;;;;;8.83;5.10;;;10.30;99.90;;;;;;5012550;28;20172;-74
2024/04/03 02:21:53;;;;;;;6.87;4.90;;;10.30;99.90;;;;;;5013519;28;20188;-75
2024/04/03 02:24:18;;;;;;;10.80;5.03;;;10.30;99.90;;;;;;5012106;28;20274;-75
2024/04/03 02:26:44;;;;;;;9.20;5.27;;;10.30;99.90;;;;;;5011108;28;20741;-75
2024/04/03 02:29:13;;;;;;;9.13;5.07;;;10.30;99.90;;;;;;5012135;28;20199;-75
2024/04/03 02:31:39;;;;;;;10.47;5.17;;;10.30;99.90;;;;;;5051155;23;20707;-75
2024/04/03 02:34:04;;;;;;;8.90;4.93;;;10.30;99.90;;;;;;5031398;28;20178;-75
2024/04/03 02:36:30;;;;;;;11.50;5.40;;;10.20;99.90;;;;;;5031399;28;20183;-75
2024/04/03 02:38:55;;;;;;;10.20;4.93;;;10.20;99.90;;;;;;5030388;28;20190;-75
2024/04/03 02:41:21;;;;;;;5.33;4.83;;;10.20;99.90;;;;;;5011378;28;20200;-76
2024/04/03 02:43:46;;;;;;;7.20;4.83;;;10.20;99.90;;;;;;5011570;28;20263;-75
2024/04/03 02:46:12;;;;;;;12.83;5.17;;;10.10;99.90;;;;;;5011579;28;20171;-76
2024/04/03 02:48:37;;;;;;;6.30;4.60;;;10.10;99.90;;;;;;5011688;28;20174;-75
2024/04/03 02:51:09;;;;;;;11.43;4.97;;;10.10;99.90;;;;;;5011916;28;20196;-78
2024/04/03 02:53:35;;;;;;;8.77;5.17;;;10.10;99.90;;;;;;5012003;28;20200;-75
2024/04/03 02:56:06;;;;;;;8.10;5.23;;;10.10;99.90;;;;;;5011627;28;20176;-76
2024/04/03 02:58:35;;;;;;;7.03;5.30;;;10.10;99.90;;;;;;5012615;28;20164;-76
2024/04/03 03:01:06;;;;;;;9.33;5.20;;;10.10;99.90;;;;;;5012316;28;20627;-78
2024/04/03 03:03:33;;;;;;;6.73;5.00;;;10.10;99.90;;;;;;5012610;28;20200;-77
2024/04/03 03:06:06;;;;;;;8.37;5.50;;;10.10;99.90;;;;;;5012858;28;20179;-78
2024/04/03 03:08:33;;;;;;;10.77;5.43;;;10.10;99.90;;;;;;5012709;28;20172;-76
2024/04/03 03:11:00;;;;;;;9.40;5.40;;;10.10;99.90;;;;;;5015474;28;20211;-75
2024/04/03 03:13:27;;;;;;;6.53;5.00;;;10.10;99.90;;;;;;5015261;28;20208;-75
2024/04/03 03:15:58;;;;;;;9.10;5.87;;;10.10;99.90;;;;;;5016697;28;20180;-78
2024/04/03 03:18:28;;;;;;;9.77;6.10;;;10.10;99.90;;;;;;5015156;28;20182;-75
2024/04/03 03:20:54;;;;;;;9.23;5.40;;;10.10;99.90;;;;;;5015374;28;20184;-75
2024/04/03 03:23:20;;;;;;;7.87;6.20;;;10.10;99.90;;;;;;5015063;28;20653;-78
2024/04/03 03:25:47;;;;;;;7.27;6.30;;;10.10;99.90;;;;;;5015286;28;20702;-76
2024/04/03 03:28:14;;;;;;;9.90;7.07;;;10.10;99.90;;;;;;5014936;28;20173;-75
2024/04/03 03:30:40;;;;;;;8.70;6.63;;;10.10;99.90;;;;;;5031285;28;20593;-75
2024/04/03 03:33:06;;;;;;;8.00;7.20;;;10.10;99.90;;;;;;5033070;28;20207;-78
2024/04/03 03:35:32;;;;;;;13.73;7.07;;;10.10;99.90;;;;;;5035926;28;20172;-78
2024/04/03 03:37:58;;;;;;;11.57;7.30;;;10.00;99.90;;;;;;5036027;28;20172;-78
2024/04/03 03:40:24;;;;;;;12.77;7.27;;;10.10;99.90;;;;;;5035090;28;20213;-76
2024/04/03 03:42:49;;;;;;;9.37;6.10;;;10.10;99.90;;;;;;5034696;28;20178;-75
2024/04/03 03:45:20;;;;;;;11.33;6.90;;;10.10;99.90;;;;;;5034547;28;20176;-75
2024/04/03 03:47:46;;;;;;;10.10;7.27;;;10.10;99.90;;;;;;5031133;28;20237;-76
2024/04/03 03:52:56;;;;;;;12.40;6.83;;;10.00;99.90;;;;;;5034444;28;20206;-76
2024/04/03 03:55:22;;;;;;;7.53;6.63;;;10.00;99.90;;;;;;5034424;28;20258;-76
2024/04/03 03:57:47;;;;;;;10.33;6.43;;;10.00;99.90;;;;;;5034318;28;20168;-77
2024/04/03 04:00:13;;;;;;;10.67;6.30;;;10.00;99.90;;;;;;5034277;28;20191;-76
2024/04/03 04:02:39;;;;;;;12.17;7.00;;;10.00;99.90;;;;;;5022038;28;20184;-77
2024/04/03 04:05:04;;;;;;;9.63;6.17;;;10.00;99.90;;;;;;5014442;28;20609;-76
2024/04/03 04:07:32;;;;;;;9.37;6.57;;;10.10;99.90;;;;;;5014160;28;20247;-76
2024/04/03 04:09:58;;;;;;;11.20;6.43;;;10.10;99.90;;;;;;5014357;28;20223;-76
2024/04/03 04:12:23;;;;;;;10.27;6.80;;;10.10;99.90;;;;;;5014205;28;20303;-76
2024/04/03 04:14:52;;;;;;;8.73;6.60;;;10.10;99.90;;;;;;5014385;28;20664;-77
2024/04/03 04:17:19;;;;;;;9.67;6.60;;;10.10;99.90;;;;;;5024999;28;20188;-76
2024/04/03 04:19:46;;;;;;;9.07;6.10;;;10.10;99.90;;;;;;5033528;28;20198;-77
2024/04/03 04:22:11;;;;;;;10.73;6.70;;;10.10;99.90;;;;;;5034110;28;20176;-77
2024/04/03 04:24:38;;;;;;;7.57;5.80;;;10.10;99.90;;;;;;5032306;28;20252;-77
2024/04/03 04:27:05;;;;;;;10.83;7.67;;;10.10;99.90;;;;;;5033678;28;20175;-77
2024/04/03 04:29:31;;;;;;;8.03;5.97;;;10.00;99.90;;;;;;5033863;28;20167;-76
2024/04/03 04:32:01;;;;;;;9.80;5.60;;;10.00;99.90;;;;;;5032036;28;20298;-77
2024/04/03 04:34:27;;;;;;;9.83;6.37;;;10.00;99.90;;;;;;5033809;28;20187;-77
2024/04/03 04:36:53;;;;;;;10.90;6.93;;;10.00;99.90;;;;;;5033516;28;20182;-76
2024/04/03 04:39:18;;;;;;;16.70;7.40;;;10.00;99.90;;;;;;5033455;28;20871;-77
2024/04/03 04:41:53;;;;;;;6.93;6.33;;;10.00;99.90;;;;;;5033207;28;20206;-76
2024/04/03 04:44:20;;;;;;;10.73;6.43;;;10.00;99.90;;;;;;5033567;28;20175;-76
2024/04/03 04:46:53;;;;;;;12.17;6.93;;;9.90;99.90;;;;;;5033232;28;20179;-77
2024/04/03 04:49:21;;;;;;;17.83;7.77;;;9.90;99.90;;;;;;5031410;28;20179;-77
2024/04/03 04:51:47;;;;;;;10.03;7.63;;;9.90;99.90;;;;;;5032632;28;20203;-77
2024/04/03 04:54:15;;;;;;;7.60;6.80;;;9.90;99.90;;;;;;5032836;28;20226;-77
2024/04/03 04:56:41;;;;;;;13.13;7.20;;;9.90;99.90;;;;;;5032878;28;20178;-77
2024/04/03 04:59:08;;;;;;;13.00;7.53;;;9.90;99.90;;;;;;5032615;28;20187;-77
2024/04/03 05:01:38;;;;;;;9.63;6.67;;;9.90;99.90;;;;;;5027921;28;20231;-77
2024/04/03 05:04:05;;;;;;;12.07;7.67;;;9.90;99.90;;;;;;5013028;28;20153;-77
2024/04/03 05:06:30;;;;;;;13.83;7.60;;;9.80;99.90;;;;;;5013891;28;20169;-77
2024/04/03 05:08:56;;;;;;;15.20;7.83;;;9.90;99.90;;;;;;5012957;28;20183;-78
2024/04/03 05:11:22;;;;;;;18.27;7.73;;;9.90;99.90;;;;;;5012677;28;20196;-76
2024/04/03 05:13:48;;;;;;;13.40;7.67;;;9.90;99.90;;;;;;5014365;28;20299;-77
2024/04/03 05:16:20;;;;;;;9.93;7.27;;;9.90;99.90;;;;;;5032347;28;20648;-76
2024/04/03 05:18:46;;;;;;;11.07;7.13;;;9.90;99.90;;;;;;5032243;28;20172;-76
2024/04/03 05:21:12;;;;;;;11.43;6.77;;;9.90;99.90;;;;;;5032074;28;20202;-75
2024/04/03 05:23:38;;;;;;;9.40;6.60;;;9.90;99.90;;;;;;5032056;28;20175;-76
2024/04/03 05:26:11;;;;;;;12.73;7.30;;;9.90;99.90;;;;;;5030491;28;20175;-76
2024/04/03 05:28:38;;;;;;;13.07;7.23;;;9.90;99.90;;;;;;5032031;28;20222;-76
2024/04/03 05:31:15;;;;;;;16.80;7.67;;;10.00;99.90;;;;;;5031118;28;20242;-76
2024/04/03 05:33:42;;;;;;;12.37;7.43;;;10.00;99.90;;;;;;5031978;28;20530;-76
2024/04/03 05:36:09;;;;;;;10.70;7.13;;;10.00;99.90;;;;;;5032046;28;20160;-76
2024/04/03 05:38:35;;;;;;;11.33;7.13;;;10.00;99.90;;;;;;5031820;28;20581;-77
2024/04/03 05:41:01;;;;;;;10.47;7.40;;;10.00;99.90;;;;;;5027456;28;20239;-76
2024/04/03 05:43:27;;;;;;;14.33;6.43;;;10.00;99.90;;;;;;5012020;28;20180;-77
2024/04/03 05:45:55;;;;;;;11.10;7.60;;;10.00;99.90;;;;;;5012095;28;20194;-77
2024/04/03 05:48:28;;;;;;;14.17;7.47;;;10.00;99.90;;;;;;5011831;28;20182;-77
2024/04/03 05:51:05;;;;;;;8.93;7.30;;;10.10;99.90;;;;;;5011608;28;20238;-77
2024/04/03 05:53:31;;;;;;;18.60;7.73;;;10.00;99.90;;;;;;5011894;28;20222;-76
2024/04/03 05:56:01;;;;;;;14.60;7.70;;;10.00;99.90;;;;;;5012835;28;20172;-76
2024/04/03 05:58:27;;;;;;;10.83;7.40;;;10.00;99.90;;;;;;5027898;28;20535;-76
2024/04/03 06:00:54;;;;;;;12.33;7.90;;;10.10;99.90;;;;;;5031947;28;20202;-76
2024/04/03 06:03:20;;;;;;;10.60;7.10;;;10.10;99.90;;;;;;5031538;28;20286;-77
2024/04/03 06:05:50;;;;;;;16.30;7.87;;;10.10;99.90;;;;;;5031441;28;20176;-76
2024/04/03 06:08:16;;;;;;;10.90;6.87;;;10.10;99.90;;;;;;5027038;28;20528;-76
2024/04/03 06:10:41;;;;;;;9.27;7.60;;;10.10;99.90;;;;;;5011443;28;20207;-76
2024/04/03 06:13:07;;;;;;;10.27;7.53;;;10.20;99.90;;;;;;5011393;28;20207;-76
2024/04/03 06:15:33;;;;;;;15.57;8.57;;;10.20;99.90;;;;;;5011467;28;20183;-76
2024/04/03 06:17:59;;;;;;;13.37;7.77;;;10.20;99.90;;;;;;5011331;28;20199;-76
2024/04/03 06:20:25;;;;;;;15.90;8.47;;;10.20;99.90;;;;;;5030055;28;20669;-76
2024/04/03 06:22:52;;;;;;;8.43;7.53;;;10.20;99.90;;;;;;5031120;28;20175;-76
2024/04/03 06:25:18;;;;;;;23.13;7.93;;;10.30;99.90;;;;;;5029367;28;20875;-75
2024/04/03 06:27:44;;;;;;;11.30;7.17;;;10.30;99.90;;;;;;5030747;28;20180;-75
2024/04/03 06:30:10;;;;;;;12.77;7.70;;;10.30;99.90;;;;;;5024301;28;20215;-76
2024/04/03 06:32:36;;;;;;;15.87;7.90;;;10.40;99.90;;;;;;5011262;28;20688;-76
2024/04/03 06:35:02;;;;;;;11.60;7.37;;;10.40;99.90;;;;;;5011120;28;20179;-76
2024/04/03 06:37:27;;;;;;;12.97;8.10;;;10.50;99.90;;;;;;5010993;28;20176;-76
2024/04/03 06:39:53;;;;;;;10.90;7.00;;;10.60;99.90;;;;;;5011096;28;20180;-76
2024/04/03 06:42:18;;;;;;;18.50;7.83;;;10.60;99.90;;;;;;5011949;28;20513;-76
2024/04/03 06:44:44;;;;;;;11.70;7.43;;;10.60;99.90;;;;;;5011096;28;20637;-75
2024/04/03 06:47:10;;;;;;;10.60;7.53;;;10.70;99.90;;;;;;5010730;28;20180;-76
2024/04/03 06:49:35;;;;;;;12.67;7.40;;;10.60;99.90;;;;;;5010261;28;20226;-75
2024/04/03 06:52:01;;;;;;;13.00;7.73;;;10.70;99.90;;;;;;5010374;28;20204;-76
2024/04/03 06:54:27;;;;;;;10.33;7.00;;;10.70;99.90;;;;;;5010455;28;20672;-76
2024/04/03 06:56:52;;;;;;;11.13;7.57;;;10.70;99.90;;;;;;5010224;28;20175;-76
2024/04/03 06:59:18;;;;;;;12.40;7.70;;;10.80;99.90;;;;;;5011598;28;20180;-76
2024/04/03 07:01:44;;;;;;;12.77;7.00;;;10.80;99.90;;;;;;5010720;28;20192;-75
2024/04/03 07:04:09;;;;;;;11.40;7.37;;;10.80;99.90;;;;;;5011153;28;20177;-76
2024/04/03 07:06:36;;;;;;;11.97;7.10;;;10.80;99.90;;;;;;5010802;28;20267;-77
2024/04/03 07:09:04;;;;;;;13.87;7.50;;;10.80;99.90;;;;;;5010883;28;20172;-76
2024/04/03 07:11:30;;;;;;;9.30;6.93;;;10.80;99.90;;;;;;5010458;28;20558;-76
2024/04/03 07:13:56;;;;;;;9.50;6.53;;;10.80;99.90;;;;;;5010427;28;20179;-77
2024/04/03 07:16:24;;;;;;;9.27;6.93;;;10.90;99.90;;;;;;5011826;28;20176;-76
2024/04/03 07:18:56;;;;;;;11.97;6.60;;;11.00;99.90;;;;;;5011120;28;20223;-75
2024/04/03 07:21:22;;;;;;;7.27;6.43;;;11.00;99.90;;;;;;5010694;28;20334;-76
2024/04/03 07:23:48;;;;;;;10.30;6.63;;;11.00;99.90;;;;;;5010845;28;20259;-77
2024/04/03 07:26:13;;;;;;;10.97;6.40;;;11.10;99.90;;;;;;5010862;28;20168;-77
2024/04/03 07:28:41;;;;;;;10.33;6.00;;;11.10;99.90;;;;;;5010890;28;20242;-76
2024/04/03 07:31:06;;;;;;;15.10;6.37;;;11.10;99.90;;;;;;5010511;28;20211;-76
2024/04/03 07:33:32;;;;;;;10.33;6.80;;;11.10;99.90;;;;;;5010687;28;20196;-76
2024/04/03 07:35:59;;;;;;;12.50;6.90;;;11.10;99.90;;;;;;5011533;28;20238;-75
2024/04/03 07:38:25;;;;;;;6.57;5.93;;;11.10;99.90;;;;;;5011115;28;20188;-75
2024/04/03 07:40:51;;;;;;;9.70;6.07;;;11.20;99.90;;;;;;5011381;28;20736;-76
2024/04/03 07:43:18;;;;;;;13.97;6.97;;;11.20;99.90;;;;;;5011306;28;20180;-74
2024/04/03 07:45:43;;;;;;;9.70;6.30;;;11.20;99.90;;;;;;5011267;28;20191;-77
2024/04/03 07:48:09;;;;;;;15.70;6.90;;;11.20;99.90;;;;;;5009156;28;20828;-75
2024/04/03 07:50:34;;;;;;;11.27;6.87;;;11.30;99.90;;;;;;5025923;28;20223;-73
2024/04/03 07:53:00;;;;;;;11.73;6.67;;;11.30;99.90;;;;;;5010502;28;20687;-74
2024/04/03 07:55:25;;;;;;;8.00;6.00;;;11.30;99.90;;;;;;5011126;28;20184;-75
2024/04/03 07:57:51;;;;;;;6.47;5.87;;;11.30;99.90;;;;;;5014001;28;20202;-75
2024/04/03 08:00:18;;;;;;;9.30;6.40;;;11.20;99.90;;;;;;5014158;28;20287;-75
2024/04/03 08:02:44;;;;;;;6.73;6.13;;;11.30;99.90;;;;;;5031354;28;20172;-75
2024/04/03 08:05:11;;;;;;;13.53;6.00;;;11.30;99.90;;;;;;5033232;28;20676;-75
2024/04/03 08:07:39;;;;;;;11.10;6.30;;;11.40;99.90;;;;;;5032216;28;20686;-75
2024/04/03 08:10:07;;;;;;;9.83;5.80;;;11.40;99.90;;;;;;5033367;28;20191;-74
2024/04/03 08:12:33;;;;;;;9.27;5.80;;;11.50;99.90;;;;;;5031719;28;20199;-77
2024/04/03 08:14:59;;;;;;;7.23;5.03;;;11.50;99.90;;;;;;5033534;28;20168;-75
2024/04/03 08:17:26;;;;;;;6.07;5.47;;;11.60;99.90;;;;;;5033200;28;20175;-76
2024/04/03 08:19:53;;;;;;;7.63;5.53;;;11.80;99.90;;;;;;5031595;28;20203;-76
2024/04/03 08:22:19;;;;;;;8.10;5.13;;;12.00;99.90;;;;;;5033579;28;20210;-77
2024/04/03 08:24:47;;;;;;;7.17;5.30;;;12.30;99.90;;;;;;5033446;28;20251;-76
2024/04/03 08:27:13;;;;;;;7.90;4.87;;;12.50;99.90;;;;;;5027427;28;21505;-76
2024/04/03 08:29:39;;;;;;;7.00;4.40;;;12.70;99.90;;;;;;5031186;28;20644;-75
2024/04/03 08:32:06;;;;;;;5.87;4.93;;;12.80;99.90;;;;;;5033349;28;20198;-75
2024/04/03 08:34:32;;;;;;;4.80;4.20;;;12.80;99.90;;;;;;5033194;28;20207;-77
2024/04/03 08:36:57;;;;;;;6.20;4.57;;;12.80;99.90;;;;;;5033123;28;20171;-77
2024/04/03 08:39:23;;;;;;;5.10;3.73;;;12.70;99.90;;;;;;5033114;28;20171;-77
2024/04/03 08:41:53;;;;;;;8.77;4.00;;;12.70;99.90;;;;;;5033123;28;20204;-75
2024/04/03 08:44:20;;;;;;;5.53;4.50;;;12.80;99.90;;;;;;5031766;28;20179;-75
2024/04/03 08:46:48;;;;;;;8.80;4.20;;;12.90;99.90;;;;;;5024681;28;20700;-75
2024/04/03 08:49:17;;;;;;;4.20;3.80;;;12.90;99.90;;;;;;5012812;28;20255;-74
2024/04/03 08:51:58;;;;;;;6.63;4.33;;;12.90;99.90;;;;;;5012732;28;20569;-76
2024/04/03 08:54:26;;;;;;;5.43;3.97;;;12.70;99.90;;;;;;5013011;28;20179;-74
2024/04/03 08:56:53;;;;;;;5.03;3.60;;;12.60;99.90;;;;;;5012907;28;20709;-75
2024/04/03 08:59:20;;;;;;;4.60;4.00;;;12.50;99.90;;;;;;5016992;28;20183;-75
2024/04/03 09:01:47;;;;;;;5.10;3.93;;;12.40;99.90;;;;;;5028296;28;20214;-74
2024/04/03 09:04:13;;;;;;;6.70;4.30;;;12.40;99.90;;;;;;5032442;28;20175;-78
2024/04/03 09:06:39;;;;;;;6.60;3.93;;;12.30;99.90;;;;;;5032423;28;20172;-74
2024/04/03 09:09:05;;;;;;;8.97;4.00;;;12.30;99.90;;;;;;5032605;28;20176;-76
2024/04/03 09:11:30;;;;;;;5.40;3.70;;;12.20;99.90;;;;;;5032145;28;20680;-75
2024/04/03 09:13:56;;;;;;;4.73;4.20;;;12.10;99.90;;;;;;5032046;28;20167;-75
2024/04/03 09:16:23;;;;;;;6.73;3.90;;;12.00;99.90;;;;;;5022117;28;20215;-76
2024/04/03 09:18:49;;;;;;;4.20;3.80;;;12.00;99.90;;;;;;5012262;28;20187;-75
2024/04/03 09:21:18;;;;;;;6.73;4.43;;;11.90;99.90;;;;;;5012405;28;20184;-76
2024/04/03 09:23:46;;;;;;;4.87;4.47;;;11.90;99.90;;;;;;5012229;28;20195;-75
2024/04/03 09:26:12;;;;;;;5.50;3.93;;;11.90;99.90;;;;;;5012233;28;20242;-76
2024/04/03 09:28:38;;;;;;;6.67;3.60;;;11.90;99.90;;;;;;5012069;28;20180;-76
2024/04/03 09:31:03;;;;;;;4.50;3.77;;;11.90;99.90;;;;;;5021130;28;20207;-75
2024/04/03 09:33:31;;;;;;;3.83;3.53;;;11.90;99.90;;;;;;5031980;28;20763;-75
2024/04/03 09:35:56;;;;;;;4.20;3.90;;;12.00;99.90;;;;;;5030269;28;20175;-75
2024/04/03 09:38:22;;;;;;;7.17;3.87;;;12.00;99.90;;;;;;5031773;28;20262;-74
2024/04/03 09:40:49;;;;;;;4.53;3.40;;;12.00;99.90;;;;;;5031080;28;20199;-76
2024/04/03 09:43:21;;;;;;;4.60;4.13;;;12.00;99.90;;;;;;5031465;28;20191;-75
2024/04/03 09:45:51;;;;;;;3.63;3.33;;;12.00;99.90;;;;;;5030004;28;20179;-77
2024/04/03 09:48:25;;;;;;;4.33;3.40;;;12.10;99.90;;;;;;5012967;28;20187;-76
2024/04/03 09:50:51;;;;;;;3.87;3.57;;;12.30;99.90;;;;;;5011405;28;20203;-74
2024/04/03 09:53:24;;;;;;;3.33;3.00;;;12.40;99.90;;;;;;5023336;28;20225;-75
2024/04/03 09:55:52;;;;;;;3.10;2.90;;;12.50;99.90;;;;;;5031484;28;20176;-77
2024/04/03 09:58:20;;;;;;;2.80;2.60;;;12.70;99.90;;;;;;5031263;28;20301;-74
2024/04/03 10:00:57;;;;;;;2.90;2.80;;;12.80;99.90;;;;;;5031492;28;20215;-76
2024/04/03 10:03:26;;;;;;;3.00;2.80;;;12.80;99.90;;;;;;5029930;28;20185;-76
2024/04/03 10:06:06;;;;;;;3.40;3.20;;;12.90;99.90;;;;;;5030531;28;20171;-77
2024/04/03 10:08:44;;;;;;;2.80;2.60;;;13.00;99.90;;;;;;5031438;28;20207;-76
2024/04/03 10:11:12;;;;;;;2.97;2.80;;;13.10;99.90;;;;;;5031187;28;20200;-76
2024/04/03 10:13:39;;;;;;;2.87;2.67;;;13.10;99.90;;;;;;5031014;28;20202;-75
2024/04/03 10:16:14;;;;;;;2.63;2.53;;;13.20;99.90;;;;;;5015375;28;20202;-77
2024/04/03 10:18:50;;;;;;;2.60;2.50;;;13.30;99.90;;;;;;5010519;28;20691;-74
2024/04/03 10:21:16;;;;;;;2.90;2.70;;;13.50;99.90;;;;;;5011261;28;20567;-74
2024/04/03 10:23:46;;;;;;;3.17;2.83;;;13.60;99.90;;;;;;5011103;28;20172;-76
2024/04/03 10:26:13;;;;;;;3.30;3.00;;;13.80;99.90;;;;;;5011442;28;20168;-75
2024/04/03 10:28:40;;;;;;;2.83;2.63;;;13.90;99.90;;;;;;5010880;28;20172;-74
2024/04/03 10:31:06;;;;;;;3.50;3.20;;;13.90;99.90;;;;;;5011098;28;20216;-75
2024/04/03 10:33:32;;;;;;;2.80;2.60;;;13.80;99.90;;;;;;5011309;28;20326;-74
2024/04/03 10:35:58;;;;;;;2.90;2.70;;;13.70;99.90;;;;;;5010946;28;20200;-74
2024/04/03 10:38:24;;;;;;;2.90;2.70;;;13.60;99.90;;;;;;5010910;28;20172;-76
2024/04/03 10:40:50;;;;;;;2.70;2.50;;;13.50;99.90;;;;;;5010944;28;20238;-76
2024/04/03 10:43:16;;;;;;;2.90;2.70;;;13.30;99.90;;;;;;5018379;28;20211;-76
2024/04/03 10:45:51;;;;;;;2.70;2.50;;;13.20;99.90;;;;;;5031040;28;20195;-76
2024/04/03 10:48:17;;;;;;;2.90;2.70;;;13.20;99.90;;;;;;5030338;28;20179;-76
2024/04/03 10:50:46;;;;;;;3.20;3.00;;;13.10;99.90;;;;;;5030296;28;20261;-76
2024/04/03 10:53:13;;;;;;;3.43;3.00;;;13.10;99.90;;;;;;5030707;28;20698;-75
2024/04/03 10:55:39;;;;;;;3.40;3.10;;;12.90;99.90;;;;;;5030558;28;20237;-76
2024/04/03 10:58:06;;;;;;;2.87;2.70;;;12.90;99.90;;;;;;5029862;28;20168;-75
2024/04/03 11:00:43;;;;;;;3.40;2.60;;;12.80;99.90;;;;;;5029445;28;20568;-76
2024/04/03 11:03:10;;;;;;;2.70;2.50;;;12.90;99.90;;;;;;5028765;28;20199;-75
2024/04/03 11:05:36;;;;;;;2.83;2.67;;;13.00;99.90;;;;;;5026706;28;20191;-76
2024/04/03 11:08:03;;;;;;;3.10;2.90;;;13.00;99.90;;;;;;5010549;28;20545;-76
2024/04/03 11:10:29;;;;;;;2.70;2.60;;;13.00;99.90;;;;;;5011161;28;20275;-76
2024/04/03 11:13:02;;;;;;;2.90;2.70;;;13.00;99.90;;;;;;5010920;28;20278;-76
2024/04/03 11:15:27;;;;;;;2.60;2.50;;;13.00;99.90;;;;;;5018310;28;20175;-76
2024/04/03 11:17:53;;;;;;;2.67;2.50;;;13.00;99.90;;;;;;5030491;28;20605;-75
2024/04/03 11:20:19;;;;;;;2.60;2.50;;;13.10;99.90;;;;;;5030654;28;20274;-76
2024/04/03 11:22:45;;;;;;;2.60;2.50;;;13.20;99.90;;;;;;5030783;28;20175;-75
2024/04/03 11:25:12;;;;;;;2.90;2.70;;;13.20;99.90;;;;;;5030608;28;20202;-76
2024/04/03 11:27:39;;;;;;;2.73;2.63;;;13.20;99.90;;;;;;5030565;28;20267;-75
2024/04/03 11:30:06;;;;;;;2.90;2.70;;;13.10;99.90;;;;;;5016903;28;20226;-76
2024/04/03 11:32:32;;;;;;;2.93;2.73;;;13.00;99.90;;;;;;5014489;28;20199;-77
2024/04/03 11:34:58;;;;;;;2.67;2.47;;;13.00;99.90;;;;;;5014523;28;20183;-76
2024/04/03 11:37:23;;;;;;;2.90;2.70;;;13.00;99.90;;;;;;5014417;28;20172;-75
2024/04/03 11:39:49;;;;;;;3.00;2.90;;;13.00;99.90;;;;;;5051419;28;20244;-76
2024/04/03 11:42:15;;;;;;;3.00;2.80;;;13.00;99.90;;;;;;5054082;28;20528;-76
2024/04/03 11:44:41;;;;;;;3.43;2.83;;;12.90;99.90;;;;;;5054283;28;20182;-76
2024/04/03 11:47:06;;;;;;;2.60;2.50;;;13.00;99.90;;;;;;5018595;28;20184;-76
2024/04/03 11:49:32;;;;;;;2.80;2.70;;;12.90;99.90;;;;;;5014255;28;20255;-75
2024/04/03 11:51:58;;;;;;;2.60;2.50;;;12.90;99.90;;;;;;5013282;28;20192;-75
2024/04/03 11:54:23;;;;;;;2.60;2.50;;;13.00;99.90;;;;;;5015143;28;20169;-77
2024/04/03 11:56:50;;;;;;;2.90;2.70;;;13.00;99.90;;;;;;5014182;28;20591;-74
2024/04/03 11:59:16;;;;;;;2.80;2.60;;;13.10;99.90;;;;;;5013896;28;20558;-75
2024/04/03 12:01:42;;;;;;;2.70;2.60;;;13.20;99.90;;;;;;5013796;28;20196;-74
2024/04/03 12:04:07;;;;;;;2.57;2.47;;;13.20;99.90;;;;;;5013785;28;20637;-75
2024/04/03 12:06:33;;;;;;;2.43;2.33;;;13.20;99.90;;;;;;5013616;28;20169;-75
2024/04/03 12:08:58;;;;;;;2.97;2.77;;;13.20;99.90;;;;;;5013364;28;20226;-76
2024/04/03 12:11:24;;;;;;;2.90;2.70;;;13.20;99.90;;;;;;5013655;28;20211;-75
2024/04/03 12:13:50;;;;;;;3.50;3.20;;;13.20;99.90;;;;;;5013340;28;20292;-75
2024/04/03 12:16:20;;;;;;;3.37;3.17;;;13.20;99.90;;;;;;5018044;28;20694;-75
2024/04/03 12:18:50;;;;;;;4.20;3.90;;;13.20;99.90;;;;;;5033346;28;20195;-74
2024/04/03 12:21:19;;;;;;;3.90;3.40;;;13.20;99.90;;;;;;5033019;28;20240;-75
2024/04/03 12:23:45;;;;;;;3.50;3.30;;;13.20;99.90;;;;;;5019741;28;20187;-74
2024/04/03 12:26:12;;;;;;;2.70;2.60;;;13.20;99.90;;;;;;5013108;28;20271;-76
2024/04/03 12:28:38;;;;;;;2.90;2.70;;;13.20;99.90;;;;;;5013459;28;20169;-77
2024/04/03 12:31:04;;;;;;;2.57;2.47;;;13.10;99.90;;;;;;5036712;28;20714;-76
2024/04/03 12:33:29;;;;;;;2.87;2.67;;;13.10;99.90;;;;;;5052877;28;20680;-75
2024/04/03 12:35:55;;;;;;;2.60;2.50;;;13.00;99.90;;;;;;5052531;28;20190;-76
2024/04/03 12:38:21;;;;;;;2.60;2.50;;;13.00;99.90;;;;;;5052540;28;20194;-76
2024/04/03 12:40:46;;;;;;;2.90;2.70;;;13.00;99.90;;;;;;5039833;28;20286;-76
2024/04/03 12:43:12;;;;;;;2.70;2.50;;;13.00;99.90;;;;;;5013011;28;20176;-75